Terminal Aerodrome Forecast
Issued by NWS

Home | Current Version | Previous Version | Text Only | Print | Product List | Glossary On
Versions: 1 2 3 4 5 6 7 8 9 10 11 12 13 14 15 16 17 18 19 20 21 22 23 24 25
000
FTUS43 KLOT 241127
TAFGYY
TAF
KGYY 241127Z 2412/2512 18010KT P6SM SCT020 BKN035
     FM241330 19010G16KT 6SM -SHRA VCTS BKN020CB OVC025
      TEMPO 2414/2417 3SM TSRA OVC010CB
     FM241800 20011G18KT P6SM BKN020
     FM241900 21012G19KT P6SM BKN035
     FM250000 22008KT P6SM VCSH SCT035 BKN100 PROB30 2504/2510 3SM
      TSRA OVC025CB=

USA.gov is the U.S. government's official web portal to all federal, state and local government web resources and services.